ADDS METAR Data

Data at: 0743 UTC 24 Oct 2017

METAR for:KSFM (Sanford Rgnl, ME, US)
Text:KSFM 240718Z AUTO 00000KT 1/2SM FG OVC003 14/14 A3011 RMK AO2 RVRNO
Temperature: 14.0°C ( 57°F)
Dewpoint: 14.0°C ( 57°F) [RH = 100%]
Pressure (altimeter):30.11 inches Hg (1019.7 mb)
Winds:calm
Visibility: 0.50 sm ( 0.80 km)
Ceiling:300 feet AGL
Clouds: overcast cloud deck at 300 feet AGL
Weather:FG (fog)
QC Flag:automated observation with no human augmentation